sensor_id;sensor_type;location;lat;lon;timestamp;P1;durP1;ratioP1;P2;durP2;ratioP2
23539;SDS011;11947;50.810;4.394;2023-04-06T00:01:56;21.90;;;10.13;;
23539;SDS011;11947;50.810;4.394;2023-04-06T00:04:25;21.67;;;9.70;;
23539;SDS011;11947;50.810;4.394;2023-04-06T00:06:53;25.13;;;10.35;;
23539;SDS011;11947;50.810;4.394;2023-04-06T00:09:20;25.55;;;9.55;;
23539;SDS011;11947;50.810;4.394;2023-04-06T00:11:46;26.23;;;10.73;;
23539;SDS011;11947;50.810;4.394;2023-04-06T00:14:11;25.77;;;10.20;;
23539;SDS011;11947;50.810;4.394;2023-04-06T00:16:37;22.10;;;9.90;;
23539;SDS011;11947;50.810;4.394;2023-04-06T00:19:03;24.02;;;10.20;;
23539;SDS011;11947;50.810;4.394;2023-04-06T00:21:28;23.08;;;10.13;;
23539;SDS011;11947;50.810;4.394;2023-04-06T00:23:56;30.30;;;10.23;;
23539;SDS011;11947;50.810;4.394;2023-04-06T00:26:21;25.55;;;10.25;;
23539;SDS011;11947;50.810;4.394;2023-04-06T00:28:47;25.85;;;10.25;;
23539;SDS011;11947;50.810;4.394;2023-04-06T00:31:15;27.08;;;11.25;;
23539;SDS011;11947;50.810;4.394;2023-04-06T00:33:40;23.52;;;9.93;;
23539;SDS011;11947;50.810;4.394;2023-04-06T00:36:06;25.83;;;10.45;;
23539;SDS011;11947;50.810;4.394;2023-04-06T00:38:32;24.98;;;10.68;;
23539;SDS011;11947;50.810;4.394;2023-04-06T00:40:57;23.90;;;10.75;;
23539;SDS011;11947;50.810;4.394;2023-04-06T00:43:23;23.83;;;10.93;;
23539;SDS011;11947;50.810;4.394;2023-04-06T00:45:49;24.13;;;10.57;;
23539;SDS011;11947;50.810;4.394;2023-04-06T00:48:15;26.33;;;11.23;;
23539;SDS011;11947;50.810;4.394;2023-04-06T00:50:41;22.70;;;10.45;;
23539;SDS011;11947;50.810;4.394;2023-04-06T00:53:07;26.92;;;10.20;;
23539;SDS011;11947;50.810;4.394;2023-04-06T00:55:33;26.63;;;11.10;;
23539;SDS011;11947;50.810;4.394;2023-04-06T00:58:01;28.02;;;10.82;;
23539;SDS011;11947;50.810;4.394;2023-04-06T01:00:26;26.15;;;10.80;;
23539;SDS011;11947;50.810;4.394;2023-04-06T01:02:52;24.40;;;10.95;;
23539;SDS011;11947;50.810;4.394;2023-04-06T01:05:18;25.25;;;11.02;;
23539;SDS011;11947;50.810;4.394;2023-04-06T01:07:45;30.92;;;11.23;;
23539;SDS011;11947;50.810;4.394;2023-04-06T01:10:22;28.30;;;11.35;;
23539;SDS011;11947;50.810;4.394;2023-04-06T01:13:01;24.35;;;10.73;;
23539;SDS011;11947;50.810;4.394;2023-04-06T01:15:33;25.63;;;10.48;;
23539;SDS011;11947;50.810;4.394;2023-04-06T01:18:03;29.35;;;11.15;;
23539;SDS011;11947;50.810;4.394;2023-04-06T01:20:31;27.17;;;11.23;;
23539;SDS011;11947;50.810;4.394;2023-04-06T01:22:57;23.52;;;10.05;;
23539;SDS011;11947;50.810;4.394;2023-04-06T01:25:31;27.58;;;10.55;;
23539;SDS011;11947;50.810;4.394;2023-04-06T01:27:56;28.20;;;11.20;;
23539;SDS011;11947;50.810;4.394;2023-04-06T01:30:22;23.88;;;10.52;;
23539;SDS011;11947;50.810;4.394;2023-04-06T01:32:48;26.25;;;10.85;;
23539;SDS011;11947;50.810;4.394;2023-04-06T01:35:14;26.30;;;11.35;;
23539;SDS011;11947;50.810;4.394;2023-04-06T01:37:39;26.08;;;11.18;;
23539;SDS011;11947;50.810;4.394;2023-04-06T01:40:06;26.60;;;11.52;;
23539;SDS011;11947;50.810;4.394;2023-04-06T01:42:32;27.50;;;11.90;;
23539;SDS011;11947;50.810;4.394;2023-04-06T01:44:57;28.75;;;11.68;;
23539;SDS011;11947;50.810;4.394;2023-04-06T01:47:23;28.73;;;11.50;;
23539;SDS011;11947;50.810;4.394;2023-04-06T01:49:49;26.38;;;11.25;;
23539;SDS011;11947;50.810;4.394;2023-04-06T01:52:14;29.35;;;11.80;;
23539;SDS011;11947;50.810;4.394;2023-04-06T01:54:40;28.15;;;11.63;;
23539;SDS011;11947;50.810;4.394;2023-04-06T01:57:10;32.40;;;12.75;;
23539;SDS011;11947;50.810;4.394;2023-04-06T01:59:35;27.50;;;11.13;;
23539;SDS011;11947;50.810;4.394;2023-04-06T02:02:01;28.00;;;11.68;;
23539;SDS011;11947;50.810;4.394;2023-04-06T02:04:27;26.75;;;11.70;;
23539;SDS011;11947;50.810;4.394;2023-04-06T02:06:52;27.77;;;11.85;;
23539;SDS011;11947;50.810;4.394;2023-04-06T02:09:18;33.30;;;12.77;;
23539;SDS011;11947;50.810;4.394;2023-04-06T02:11:44;28.38;;;11.93;;
23539;SDS011;11947;50.810;4.394;2023-04-06T02:14:09;26.90;;;11.85;;
23539;SDS011;11947;50.810;4.394;2023-04-06T02:16:35;30.45;;;12.68;;
23539;SDS011;11947;50.810;4.394;2023-04-06T02:19:00;27.23;;;11.13;;
23539;SDS011;11947;50.810;4.394;2023-04-06T02:21:26;29.17;;;11.90;;
23539;SDS011;11947;50.810;4.394;2023-04-06T02:23:52;29.65;;;12.30;;
23539;SDS011;11947;50.810;4.394;2023-04-06T02:26:17;25.67;;;11.70;;
23539;SDS011;11947;50.810;4.394;2023-04-06T02:28:43;28.77;;;11.88;;
23539;SDS011;11947;50.810;4.394;2023-04-06T02:31:09;29.73;;;12.35;;
23539;SDS011;11947;50.810;4.394;2023-04-06T02:33:35;30.85;;;11.88;;
23539;SDS011;11947;50.810;4.394;2023-04-06T02:36:00;27.20;;;11.48;;
23539;SDS011;11947;50.810;4.394;2023-04-06T02:38:26;27.02;;;11.52;;
23539;SDS011;11947;50.810;4.394;2023-04-06T02:40:51;27.90;;;11.52;;
23539;SDS011;11947;50.810;4.394;2023-04-06T02:43:18;28.77;;;12.13;;
23539;SDS011;11947;50.810;4.394;2023-04-06T02:45:44;27.80;;;11.75;;
23539;SDS011;11947;50.810;4.394;2023-04-06T02:48:09;28.65;;;12.20;;
23539;SDS011;11947;50.810;4.394;2023-04-06T02:50:35;28.17;;;11.70;;
23539;SDS011;11947;50.810;4.394;2023-04-06T02:53:01;29.13;;;11.90;;
23539;SDS011;11947;50.810;4.394;2023-04-06T02:55:26;28.20;;;11.98;;
23539;SDS011;11947;50.810;4.394;2023-04-06T02:57:52;28.02;;;12.48;;
23539;SDS011;11947;50.810;4.394;2023-04-06T03:00:18;28.52;;;11.95;;
23539;SDS011;11947;50.810;4.394;2023-04-06T03:02:44;27.48;;;11.85;;
23539;SDS011;11947;50.810;4.394;2023-04-06T03:05:10;32.50;;;11.65;;
23539;SDS011;11947;50.810;4.394;2023-04-06T03:07:35;26.60;;;11.77;;
23539;SDS011;11947;50.810;4.394;2023-04-06T03:10:01;28.83;;;11.55;;
23539;SDS011;11947;50.810;4.394;2023-04-06T03:12:27;27.23;;;11.35;;
23539;SDS011;11947;50.810;4.394;2023-04-06T03:14:52;29.42;;;12.13;;
23539;SDS011;11947;50.810;4.394;2023-04-06T03:17:22;31.23;;;12.23;;
23539;SDS011;11947;50.810;4.394;2023-04-06T03:19:50;28.40;;;12.70;;
23539;SDS011;11947;50.810;4.394;2023-04-06T03:22:34;29.08;;;12.20;;
23539;SDS011;11947;50.810;4.394;2023-04-06T03:25:02;28.50;;;12.20;;
23539;SDS011;11947;50.810;4.394;2023-04-06T03:27:37;27.73;;;11.93;;
23539;SDS011;11947;50.810;4.394;2023-04-06T03:30:03;27.25;;;11.77;;
23539;SDS011;11947;50.810;4.394;2023-04-06T03:32:29;30.00;;;12.40;;
23539;SDS011;11947;50.810;4.394;2023-04-06T03:34:58;30.40;;;12.32;;
23539;SDS011;11947;50.810;4.394;2023-04-06T03:37:24;28.52;;;12.20;;
23539;SDS011;11947;50.810;4.394;2023-04-06T03:39:51;29.88;;;12.57;;
23539;SDS011;11947;50.810;4.394;2023-04-06T03:42:17;29.95;;;12.75;;
23539;SDS011;11947;50.810;4.394;2023-04-06T03:44:43;27.02;;;12.00;;
23539;SDS011;11947;50.810;4.394;2023-04-06T03:47:08;30.25;;;12.55;;
23539;SDS011;11947;50.810;4.394;2023-04-06T03:49:34;24.63;;;11.05;;
23539;SDS011;11947;50.810;4.394;2023-04-06T03:52:00;27.50;;;12.30;;
23539;SDS011;11947;50.810;4.394;2023-04-06T03:54:26;30.02;;;12.27;;
23539;SDS011;11947;50.810;4.394;2023-04-06T03:56:52;26.65;;;11.57;;
23539;SDS011;11947;50.810;4.394;2023-04-06T03:59:18;29.92;;;11.70;;
23539;SDS011;11947;50.810;4.394;2023-04-06T04:01:44;25.25;;;11.70;;
23539;SDS011;11947;50.810;4.394;2023-04-06T04:04:10;30.50;;;12.25;;
23539;SDS011;11947;50.810;4.394;2023-04-06T04:06:36;30.13;;;12.45;;
23539;SDS011;11947;50.810;4.394;2023-04-06T04:09:02;31.17;;;12.52;;
23539;SDS011;11947;50.810;4.394;2023-04-06T04:11:28;30.08;;;11.90;;
23539;SDS011;11947;50.810;4.394;2023-04-06T04:13:56;25.90;;;12.02;;
23539;SDS011;11947;50.810;4.394;2023-04-06T04:16:24;28.38;;;12.13;;
23539;SDS011;11947;50.810;4.394;2023-04-06T04:18:51;28.60;;;12.88;;
23539;SDS011;11947;50.810;4.394;2023-04-06T04:21:22;32.38;;;12.70;;
23539;SDS011;11947;50.810;4.394;2023-04-06T04:23:49;27.63;;;11.63;;
23539;SDS011;11947;50.810;4.394;2023-04-06T04:26:15;32.05;;;12.73;;
23539;SDS011;11947;50.810;4.394;2023-04-06T04:28:42;34.83;;;13.43;;
23539;SDS011;11947;50.810;4.394;2023-04-06T04:31:14;33.10;;;12.93;;
23539;SDS011;11947;50.810;4.394;2023-04-06T04:33:43;29.05;;;13.32;;
23539;SDS011;11947;50.810;4.394;2023-04-06T04:36:17;26.60;;;12.00;;
23539;SDS011;11947;50.810;4.394;2023-04-06T04:38:42;26.33;;;12.35;;
23539;SDS011;11947;50.810;4.394;2023-04-06T04:41:32;32.17;;;12.05;;
23539;SDS011;11947;50.810;4.394;2023-04-06T04:43:58;34.78;;;12.80;;
23539;SDS011;11947;50.810;4.394;2023-04-06T04:46:24;28.85;;;12.38;;
23539;SDS011;11947;50.810;4.394;2023-04-06T04:48:49;28.52;;;13.10;;
23539;SDS011;11947;50.810;4.394;2023-04-06T04:51:18;27.42;;;11.43;;
23539;SDS011;11947;50.810;4.394;2023-04-06T04:53:45;32.05;;;13.02;;
23539;SDS011;11947;50.810;4.394;2023-04-06T04:56:17;30.80;;;12.80;;
23539;SDS011;11947;50.810;4.394;2023-04-06T04:58:42;33.85;;;13.95;;
23539;SDS011;11947;50.810;4.394;2023-04-06T05:01:15;29.85;;;12.52;;
23539;SDS011;11947;50.810;4.394;2023-04-06T05:03:40;26.58;;;12.32;;
23539;SDS011;11947;50.810;4.394;2023-04-06T05:06:07;27.92;;;12.57;;
23539;SDS011;11947;50.810;4.394;2023-04-06T05:08:33;30.83;;;12.82;;
23539;SDS011;11947;50.810;4.394;2023-04-06T05:10:59;30.27;;;12.73;;
23539;SDS011;11947;50.810;4.394;2023-04-06T05:13:24;29.00;;;12.95;;
23539;SDS011;11947;50.810;4.394;2023-04-06T05:15:56;32.33;;;13.23;;
23539;SDS011;11947;50.810;4.394;2023-04-06T05:18:22;31.52;;;13.55;;
23539;SDS011;11947;50.810;4.394;2023-04-06T05:20:50;28.00;;;12.15;;
23539;SDS011;11947;50.810;4.394;2023-04-06T05:23:20;30.85;;;12.75;;
23539;SDS011;11947;50.810;4.394;2023-04-06T05:26:03;28.98;;;12.15;;
23539;SDS011;11947;50.810;4.394;2023-04-06T05:28:30;30.08;;;12.63;;
23539;SDS011;11947;50.810;4.394;2023-04-06T05:30:58;29.30;;;12.85;;
23539;SDS011;11947;50.810;4.394;2023-04-06T05:33:29;35.17;;;13.30;;
23539;SDS011;11947;50.810;4.394;2023-04-06T05:35:55;28.73;;;12.75;;
23539;SDS011;11947;50.810;4.394;2023-04-06T05:38:27;30.00;;;13.00;;
23539;SDS011;11947;50.810;4.394;2023-04-06T05:41:01;29.03;;;13.00;;
23539;SDS011;11947;50.810;4.394;2023-04-06T05:43:28;31.50;;;12.82;;
23539;SDS011;11947;50.810;4.394;2023-04-06T05:45:56;36.08;;;13.27;;
23539;SDS011;11947;50.810;4.394;2023-04-06T05:48:21;33.28;;;13.20;;
23539;SDS011;11947;50.810;4.394;2023-04-06T05:50:53;30.85;;;12.80;;
23539;SDS011;11947;50.810;4.394;2023-04-06T05:53:27;32.10;;;13.43;;
23539;SDS011;11947;50.810;4.394;2023-04-06T05:55:54;33.88;;;14.73;;
23539;SDS011;11947;50.810;4.394;2023-04-06T05:58:21;32.13;;;14.48;;
23539;SDS011;11947;50.810;4.394;2023-04-06T06:01:07;32.63;;;13.75;;
23539;SDS011;11947;50.810;4.394;2023-04-06T06:03:40;37.80;;;14.15;;
23539;SDS011;11947;50.810;4.394;2023-04-06T06:06:11;30.02;;;14.40;;
23539;SDS011;11947;50.810;4.394;2023-04-06T06:08:39;32.55;;;14.57;;
23539;SDS011;11947;50.810;4.394;2023-04-06T06:11:04;39.03;;;14.82;;
23539;SDS011;11947;50.810;4.394;2023-04-06T06:13:42;34.30;;;14.20;;
23539;SDS011;11947;50.810;4.394;2023-04-06T06:16:07;33.90;;;15.65;;
23539;SDS011;11947;50.810;4.394;2023-04-06T06:18:34;35.03;;;14.35;;
23539;SDS011;11947;50.810;4.394;2023-04-06T06:21:01;41.28;;;15.10;;
23539;SDS011;11947;50.810;4.394;2023-04-06T06:23:27;32.85;;;14.73;;
23539;SDS011;11947;50.810;4.394;2023-04-06T06:25:53;35.67;;;14.35;;
23539;SDS011;11947;50.810;4.394;2023-04-06T06:28:18;34.90;;;15.93;;
23539;SDS011;11947;50.810;4.394;2023-04-06T06:30:44;35.97;;;15.73;;
23539;SDS011;11947;50.810;4.394;2023-04-06T06:33:10;32.83;;;14.50;;
23539;SDS011;11947;50.810;4.394;2023-04-06T06:35:36;34.50;;;15.55;;
23539;SDS011;11947;50.810;4.394;2023-04-06T06:38:01;37.80;;;16.33;;
23539;SDS011;11947;50.810;4.394;2023-04-06T06:40:27;35.75;;;15.75;;
23539;SDS011;11947;50.810;4.394;2023-04-06T06:42:53;37.20;;;16.55;;
23539;SDS011;11947;50.810;4.394;2023-04-06T06:45:18;36.50;;;16.48;;
23539;SDS011;11947;50.810;4.394;2023-04-06T06:47:45;36.17;;;15.75;;
23539;SDS011;11947;50.810;4.394;2023-04-06T06:50:11;33.40;;;15.65;;
23539;SDS011;11947;50.810;4.394;2023-04-06T06:52:37;35.47;;;15.85;;
23539;SDS011;11947;50.810;4.394;2023-04-06T06:55:03;37.90;;;16.25;;
23539;SDS011;11947;50.810;4.394;2023-04-06T06:57:28;35.78;;;15.43;;
23539;SDS011;11947;50.810;4.394;2023-04-06T06:59:54;39.40;;;16.05;;
23539;SDS011;11947;50.810;4.394;2023-04-06T07:02:20;37.92;;;15.55;;
23539;SDS011;11947;50.810;4.394;2023-04-06T07:04:48;34.80;;;15.50;;
23539;SDS011;11947;50.810;4.394;2023-04-06T07:07:14;37.95;;;16.17;;
23539;SDS011;11947;50.810;4.394;2023-04-06T07:09:40;37.42;;;15.05;;
23539;SDS011;11947;50.810;4.394;2023-04-06T07:12:06;36.75;;;15.32;;
23539;SDS011;11947;50.810;4.394;2023-04-06T07:14:31;35.30;;;15.48;;
23539;SDS011;11947;50.810;4.394;2023-04-06T07:16:57;41.55;;;16.27;;
23539;SDS011;11947;50.810;4.394;2023-04-06T07:19:23;36.25;;;15.32;;
23539;SDS011;11947;50.810;4.394;2023-04-06T07:21:48;41.58;;;15.35;;
23539;SDS011;11947;50.810;4.394;2023-04-06T07:24:14;38.70;;;15.57;;
23539;SDS011;11947;50.810;4.394;2023-04-06T07:26:40;33.95;;;15.23;;
23539;SDS011;11947;50.810;4.394;2023-04-06T07:29:06;33.70;;;12.88;;
23539;SDS011;11947;50.810;4.394;2023-04-06T07:31:32;30.85;;;13.50;;
23539;SDS011;11947;50.810;4.394;2023-04-06T07:33:58;30.55;;;12.88;;
23539;SDS011;11947;50.810;4.394;2023-04-06T07:36:24;29.20;;;12.75;;
23539;SDS011;11947;50.810;4.394;2023-04-06T07:38:49;32.70;;;13.30;;
23539;SDS011;11947;50.810;4.394;2023-04-06T07:41:15;30.50;;;12.60;;
23539;SDS011;11947;50.810;4.394;2023-04-06T07:43:41;32.25;;;12.70;;
23539;SDS011;11947;50.810;4.394;2023-04-06T07:46:06;27.42;;;11.90;;
23539;SDS011;11947;50.810;4.394;2023-04-06T07:48:32;28.15;;;12.07;;
23539;SDS011;11947;50.810;4.394;2023-04-06T07:51:04;32.83;;;12.75;;
23539;SDS011;11947;50.810;4.394;2023-04-06T07:53:31;33.97;;;12.70;;
23539;SDS011;11947;50.810;4.394;2023-04-06T07:56:00;28.52;;;12.98;;
23539;SDS011;11947;50.810;4.394;2023-04-06T07:58:25;26.70;;;12.38;;
23539;SDS011;11947;50.810;4.394;2023-04-06T08:00:51;33.22;;;12.60;;
23539;SDS011;11947;50.810;4.394;2023-04-06T08:03:17;28.23;;;13.23;;
23539;SDS011;11947;50.810;4.394;2023-04-06T08:05:45;28.73;;;12.50;;
23539;SDS011;11947;50.810;4.394;2023-04-06T08:08:11;31.13;;;12.88;;
23539;SDS011;11947;50.810;4.394;2023-04-06T08:10:36;33.78;;;13.02;;
23539;SDS011;11947;50.810;4.394;2023-04-06T08:13:02;30.95;;;13.15;;
23539;SDS011;11947;50.810;4.394;2023-04-06T08:15:28;31.42;;;12.10;;
23539;SDS011;11947;50.810;4.394;2023-04-06T08:17:53;30.10;;;11.98;;
23539;SDS011;11947;50.810;4.394;2023-04-06T08:20:22;25.42;;;11.52;;
23539;SDS011;11947;50.810;4.394;2023-04-06T08:22:47;33.47;;;12.45;;
23539;SDS011;11947;50.810;4.394;2023-04-06T08:25:13;32.92;;;12.85;;
23539;SDS011;11947;50.810;4.394;2023-04-06T08:27:39;27.33;;;11.60;;
23539;SDS011;11947;50.810;4.394;2023-04-06T08:30:05;30.73;;;12.13;;
23539;SDS011;11947;50.810;4.394;2023-04-06T08:32:30;25.00;;;11.52;;
23539;SDS011;11947;50.810;4.394;2023-04-06T08:34:56;26.92;;;11.30;;
23539;SDS011;11947;50.810;4.394;2023-04-06T08:37:22;30.98;;;12.00;;
23539;SDS011;11947;50.810;4.394;2023-04-06T08:39:48;24.58;;;10.85;;
23539;SDS011;11947;50.810;4.394;2023-04-06T08:42:16;26.85;;;11.00;;
23539;SDS011;11947;50.810;4.394;2023-04-06T08:44:49;22.90;;;10.45;;
23539;SDS011;11947;50.810;4.394;2023-04-06T08:47:17;29.05;;;11.70;;
23539;SDS011;11947;50.810;4.394;2023-04-06T08:49:43;28.50;;;11.45;;
23539;SDS011;11947;50.810;4.394;2023-04-06T08:52:10;27.33;;;10.85;;
23539;SDS011;11947;50.810;4.394;2023-04-06T08:54:37;25.92;;;10.80;;
23539;SDS011;11947;50.810;4.394;2023-04-06T08:57:03;22.58;;;10.13;;
23539;SDS011;11947;50.810;4.394;2023-04-06T08:59:31;27.50;;;11.25;;
23539;SDS011;11947;50.810;4.394;2023-04-06T09:01:57;27.27;;;11.50;;
23539;SDS011;11947;50.810;4.394;2023-04-06T09:04:24;22.50;;;10.27;;
23539;SDS011;11947;50.810;4.394;2023-04-06T09:06:51;24.52;;;11.13;;
23539;SDS011;11947;50.810;4.394;2023-04-06T09:09:17;28.00;;;11.63;;
23539;SDS011;11947;50.810;4.394;2023-04-06T09:11:49;25.05;;;11.15;;
23539;SDS011;11947;50.810;4.394;2023-04-06T09:14:16;28.98;;;11.55;;
23539;SDS011;11947;50.810;4.394;2023-04-06T09:16:42;28.35;;;10.40;;
23539;SDS011;11947;50.810;4.394;2023-04-06T09:19:10;26.80;;;12.15;;
23539;SDS011;11947;50.810;4.394;2023-04-06T09:21:37;25.25;;;11.40;;
23539;SDS011;11947;50.810;4.394;2023-04-06T09:24:06;24.25;;;11.10;;
23539;SDS011;11947;50.810;4.394;2023-04-06T09:26:32;21.52;;;10.25;;
23539;SDS011;11947;50.810;4.394;2023-04-06T09:29:09;23.15;;;10.25;;
23539;SDS011;11947;50.810;4.394;2023-04-06T09:31:34;22.30;;;10.02;;
23539;SDS011;11947;50.810;4.394;2023-04-06T09:34:00;23.33;;;10.20;;
23539;SDS011;11947;50.810;4.394;2023-04-06T09:36:33;21.77;;;9.63;;
23539;SDS011;11947;50.810;4.394;2023-04-06T09:39:03;22.67;;;9.45;;
23539;SDS011;11947;50.810;4.394;2023-04-06T09:41:34;20.40;;;9.15;;
23539;SDS011;11947;50.810;4.394;2023-04-06T09:46:36;20.38;;;8.75;;
23539;SDS011;11947;50.810;4.394;2023-04-06T09:49:04;21.70;;;9.27;;
23539;SDS011;11947;50.810;4.394;2023-04-06T09:51:38;21.45;;;10.27;;
23539;SDS011;11947;50.810;4.394;2023-04-06T09:54:04;23.88;;;10.35;;
23539;SDS011;11947;50.810;4.394;2023-04-06T09:56:33;23.25;;;9.98;;
23539;SDS011;11947;50.810;4.394;2023-04-06T09:59:06;21.40;;;9.13;;
23539;SDS011;11947;50.810;4.394;2023-04-06T10:01:35;22.20;;;9.32;;
23539;SDS011;11947;50.810;4.394;2023-04-06T10:06:46;21.55;;;9.50;;
23539;SDS011;11947;50.810;4.394;2023-04-06T10:09:17;24.58;;;10.73;;
23539;SDS011;11947;50.810;4.394;2023-04-06T10:11:46;21.02;;;8.82;;
23539;SDS011;11947;50.810;4.394;2023-04-06T10:14:14;23.80;;;10.43;;
23539;SDS011;11947;50.810;4.394;2023-04-06T10:16:40;19.50;;;9.07;;
23539;SDS011;11947;50.810;4.394;2023-04-06T10:19:15;21.55;;;10.43;;
23539;SDS011;11947;50.810;4.394;2023-04-06T10:21:47;23.90;;;10.68;;
23539;SDS011;11947;50.810;4.394;2023-04-06T10:24:15;21.65;;;10.70;;
23539;SDS011;11947;50.810;4.394;2023-04-06T10:26:42;26.02;;;11.13;;
23539;SDS011;11947;50.810;4.394;2023-04-06T10:29:07;24.50;;;11.20;;
23539;SDS011;11947;50.810;4.394;2023-04-06T10:31:39;26.23;;;11.05;;
23539;SDS011;11947;50.810;4.394;2023-04-06T10:34:07;24.85;;;10.50;;
23539;SDS011;11947;50.810;4.394;2023-04-06T10:36:33;20.73;;;9.98;;
23539;SDS011;11947;50.810;4.394;2023-04-06T10:39:00;25.45;;;10.88;;
23539;SDS011;11947;50.810;4.394;2023-04-06T10:41:31;23.63;;;9.85;;
23539;SDS011;11947;50.810;4.394;2023-04-06T10:44:01;25.00;;;11.32;;
23539;SDS011;11947;50.810;4.394;2023-04-06T10:46:31;24.45;;;11.88;;
23539;SDS011;11947;50.810;4.394;2023-04-06T10:48:58;25.98;;;11.18;;
23539;SDS011;11947;50.810;4.394;2023-04-06T10:51:37;26.13;;;11.23;;
23539;SDS011;11947;50.810;4.394;2023-04-06T10:54:03;25.92;;;10.75;;
23539;SDS011;11947;50.810;4.394;2023-04-06T10:56:31;21.33;;;10.88;;
23539;SDS011;11947;50.810;4.394;2023-04-06T10:59:01;23.23;;;10.95;;
23539;SDS011;11947;50.810;4.394;2023-04-06T11:01:27;24.17;;;11.07;;
23539;SDS011;11947;50.810;4.394;2023-04-06T11:03:54;25.98;;;10.95;;
23539;SDS011;11947;50.810;4.394;2023-04-06T11:06:24;25.45;;;11.30;;
23539;SDS011;11947;50.810;4.394;2023-04-06T11:08:51;24.88;;;11.32;;
23539;SDS011;11947;50.810;4.394;2023-04-06T11:11:19;25.13;;;11.50;;
23539;SDS011;11947;50.810;4.394;2023-04-06T11:13:48;22.92;;;10.95;;
23539;SDS011;11947;50.810;4.394;2023-04-06T11:16:16;25.35;;;11.20;;
23539;SDS011;11947;50.810;4.394;2023-04-06T11:21:18;24.20;;;10.85;;
23539;SDS011;11947;50.810;4.394;2023-04-06T11:23:45;24.77;;;11.32;;
23539;SDS011;11947;50.810;4.394;2023-04-06T11:26:13;24.17;;;11.25;;
23539;SDS011;11947;50.810;4.394;2023-04-06T11:28:40;22.88;;;10.77;;
23539;SDS011;11947;50.810;4.394;2023-04-06T11:31:08;21.98;;;10.95;;
23539;SDS011;11947;50.810;4.394;2023-04-06T11:33:36;23.67;;;11.23;;
23539;SDS011;11947;50.810;4.394;2023-04-06T11:36:03;26.90;;;11.68;;
23539;SDS011;11947;50.810;4.394;2023-04-06T11:38:30;23.50;;;11.10;;
23539;SDS011;11947;50.810;4.394;2023-04-06T11:40:55;23.58;;;11.55;;
23539;SDS011;11947;50.810;4.394;2023-04-06T11:43:30;24.35;;;10.73;;
23539;SDS011;11947;50.810;4.394;2023-04-06T11:46:00;22.88;;;11.35;;
23539;SDS011;11947;50.810;4.394;2023-04-06T11:48:27;25.25;;;11.35;;
23539;SDS011;11947;50.810;4.394;2023-04-06T11:50:56;24.63;;;11.35;;
23539;SDS011;11947;50.810;4.394;2023-04-06T11:53:23;23.85;;;11.77;;
23539;SDS011;11947;50.810;4.394;2023-04-06T11:55:49;24.95;;;12.45;;
23539;SDS011;11947;50.810;4.394;2023-04-06T11:58:15;23.20;;;10.70;;
23539;SDS011;11947;50.810;4.394;2023-04-06T12:00:41;26.58;;;12.80;;
23539;SDS011;11947;50.810;4.394;2023-04-06T12:03:10;26.88;;;12.25;;
23539;SDS011;11947;50.810;4.394;2023-04-06T12:05:37;27.90;;;12.27;;
23539;SDS011;11947;50.810;4.394;2023-04-06T12:08:03;24.23;;;11.95;;
23539;SDS011;11947;50.810;4.394;2023-04-06T12:10:28;30.25;;;12.82;;
23539;SDS011;11947;50.810;4.394;2023-04-06T12:12:54;27.15;;;12.85;;
23539;SDS011;11947;50.810;4.394;2023-04-06T12:15:20;26.40;;;12.60;;
23539;SDS011;11947;50.810;4.394;2023-04-06T12:17:46;24.42;;;12.45;;
23539;SDS011;11947;50.810;4.394;2023-04-06T12:20:12;28.27;;;12.38;;
23539;SDS011;11947;50.810;4.394;2023-04-06T12:22:38;24.63;;;12.23;;
23539;SDS011;11947;50.810;4.394;2023-04-06T12:25:04;25.88;;;12.60;;
23539;SDS011;11947;50.810;4.394;2023-04-06T12:27:31;26.02;;;13.00;;
23539;SDS011;11947;50.810;4.394;2023-04-06T12:29:57;24.63;;;11.63;;
23539;SDS011;11947;50.810;4.394;2023-04-06T12:32:23;28.90;;;13.07;;
23539;SDS011;11947;50.810;4.394;2023-04-06T12:34:50;23.58;;;11.98;;
23539;SDS011;11947;50.810;4.394;2023-04-06T12:37:17;24.35;;;12.02;;
23539;SDS011;11947;50.810;4.394;2023-04-06T12:39:42;24.98;;;12.73;;
23539;SDS011;11947;50.810;4.394;2023-04-06T12:42:10;24.20;;;12.02;;
23539;SDS011;11947;50.810;4.394;2023-04-06T12:44:35;29.73;;;13.25;;
23539;SDS011;11947;50.810;4.394;2023-04-06T12:47:01;22.20;;;11.25;;
23539;SDS011;11947;50.810;4.394;2023-04-06T12:49:27;27.88;;;13.32;;
23539;SDS011;11947;50.810;4.394;2023-04-06T12:51:53;24.70;;;11.50;;
23539;SDS011;11947;50.810;4.394;2023-04-06T12:54:18;26.67;;;11.65;;
23539;SDS011;11947;50.810;4.394;2023-04-06T12:56:45;25.45;;;12.32;;
23539;SDS011;11947;50.810;4.394;2023-04-06T12:59:11;24.15;;;12.45;;
23539;SDS011;11947;50.810;4.394;2023-04-06T13:01:36;26.48;;;12.45;;
23539;SDS011;11947;50.810;4.394;2023-04-06T13:04:02;25.60;;;11.98;;
23539;SDS011;11947;50.810;4.394;2023-04-06T13:06:28;26.70;;;12.90;;
23539;SDS011;11947;50.810;4.394;2023-04-06T13:08:54;30.70;;;13.77;;
23539;SDS011;11947;50.810;4.394;2023-04-06T13:11:20;29.73;;;13.82;;
23539;SDS011;11947;50.810;4.394;2023-04-06T13:13:48;27.20;;;13.27;;
23539;SDS011;11947;50.810;4.394;2023-04-06T13:16:14;30.52;;;14.05;;
23539;SDS011;11947;50.810;4.394;2023-04-06T13:18:40;29.13;;;14.30;;
23539;SDS011;11947;50.810;4.394;2023-04-06T13:21:06;29.80;;;15.00;;
23539;SDS011;11947;50.810;4.394;2023-04-06T13:23:33;26.88;;;13.70;;
23539;SDS011;11947;50.810;4.394;2023-04-06T13:26:00;29.48;;;14.55;;
23539;SDS011;11947;50.810;4.394;2023-04-06T13:28:28;31.85;;;14.77;;
23539;SDS011;11947;50.810;4.394;2023-04-06T13:30:55;31.30;;;14.73;;
23539;SDS011;11947;50.810;4.394;2023-04-06T13:33:21;28.20;;;14.48;;
23539;SDS011;11947;50.810;4.394;2023-04-06T13:35:46;31.35;;;14.38;;
23539;SDS011;11947;50.810;4.394;2023-04-06T13:38:12;36.80;;;15.32;;
23539;SDS011;11947;50.810;4.394;2023-04-06T13:40:39;29.73;;;13.57;;
23539;SDS011;11947;50.810;4.394;2023-04-06T13:43:05;30.42;;;14.98;;
23539;SDS011;11947;50.810;4.394;2023-04-06T13:45:31;27.33;;;14.13;;
23539;SDS011;11947;50.810;4.394;2023-04-06T13:47:57;33.30;;;14.75;;
23539;SDS011;11947;50.810;4.394;2023-04-06T13:50:25;30.58;;;14.20;;
23539;SDS011;11947;50.810;4.394;2023-04-06T13:52:52;30.50;;;14.20;;
23539;SDS011;11947;50.810;4.394;2023-04-06T13:55:17;29.90;;;14.30;;
23539;SDS011;11947;50.810;4.394;2023-04-06T13:57:43;30.08;;;13.85;;
23539;SDS011;11947;50.810;4.394;2023-04-06T14:00:09;30.85;;;14.75;;
23539;SDS011;11947;50.810;4.394;2023-04-06T14:02:36;29.08;;;14.77;;
23539;SDS011;11947;50.810;4.394;2023-04-06T14:05:02;28.63;;;13.98;;
23539;SDS011;11947;50.810;4.394;2023-04-06T14:07:28;26.60;;;13.10;;
23539;SDS011;11947;50.810;4.394;2023-04-06T14:09:54;30.33;;;14.63;;
23539;SDS011;11947;50.810;4.394;2023-04-06T14:12:19;26.27;;;13.57;;
23539;SDS011;11947;50.810;4.394;2023-04-06T14:14:45;30.52;;;14.43;;
23539;SDS011;11947;50.810;4.394;2023-04-06T14:17:11;29.40;;;14.35;;
23539;SDS011;11947;50.810;4.394;2023-04-06T14:19:36;32.20;;;14.57;;
23539;SDS011;11947;50.810;4.394;2023-04-06T14:22:02;30.25;;;13.55;;
23539;SDS011;11947;50.810;4.394;2023-04-06T14:24:29;29.05;;;14.52;;
23539;SDS011;11947;50.810;4.394;2023-04-06T14:26:55;28.20;;;14.10;;
23539;SDS011;11947;50.810;4.394;2023-04-06T14:29:21;24.88;;;13.23;;